sensor_id;sensor_type;location;lat;lon;timestamp;P1;durP1;ratioP1;P2;durP2;ratioP2
1048;SDS011;513;51.444;7.196;2023-09-30T00:00:47;28.35;;;8.20;;
1048;SDS011;513;51.444;7.196;2023-09-30T00:03:14;24.48;;;8.05;;
1048;SDS011;513;51.444;7.196;2023-09-30T00:05:41;27.65;;;8.25;;
1048;SDS011;513;51.444;7.196;2023-09-30T00:08:08;25.33;;;7.63;;
1048;SDS011;513;51.444;7.196;2023-09-30T00:10:36;26.80;;;8.57;;
1048;SDS011;513;51.444;7.196;2023-09-30T00:13:03;26.77;;;8.30;;
1048;SDS011;513;51.444;7.196;2023-09-30T00:15:31;30.10;;;8.98;;
1048;SDS011;513;51.444;7.196;2023-09-30T00:18:00;26.02;;;8.40;;
1048;SDS011;513;51.444;7.196;2023-09-30T00:20:27;27.02;;;7.95;;
1048;SDS011;513;51.444;7.196;2023-09-30T00:22:54;25.80;;;8.25;;
1048;SDS011;513;51.444;7.196;2023-09-30T00:25:21;26.00;;;7.53;;
1048;SDS011;513;51.444;7.196;2023-09-30T00:27:48;25.95;;;7.68;;
1048;SDS011;513;51.444;7.196;2023-09-30T00:30:16;30.70;;;8.00;;
1048;SDS011;513;51.444;7.196;2023-09-30T00:32:43;26.30;;;7.75;;
1048;SDS011;513;51.444;7.196;2023-09-30T00:35:11;27.17;;;7.57;;
1048;SDS011;513;51.444;7.196;2023-09-30T00:37:38;22.08;;;6.93;;
1048;SDS011;513;51.444;7.196;2023-09-30T00:40:06;25.13;;;7.47;;
1048;SDS011;513;51.444;7.196;2023-09-30T00:42:36;22.80;;;7.57;;
1048;SDS011;513;51.444;7.196;2023-09-30T00:45:04;25.50;;;7.20;;
1048;SDS011;513;51.444;7.196;2023-09-30T00:47:31;28.27;;;7.82;;
1048;SDS011;513;51.444;7.196;2023-09-30T00:49:59;23.27;;;7.45;;
1048;SDS011;513;51.444;7.196;2023-09-30T00:52:27;21.60;;;7.20;;
1048;SDS011;513;51.444;7.196;2023-09-30T00:54:55;22.80;;;6.97;;
1048;SDS011;513;51.444;7.196;2023-09-30T00:57:22;24.17;;;7.07;;
1048;SDS011;513;51.444;7.196;2023-09-30T00:59:49;24.95;;;7.15;;
1048;SDS011;513;51.444;7.196;2023-09-30T01:02:17;26.63;;;7.25;;
1048;SDS011;513;51.444;7.196;2023-09-30T01:04:44;29.38;;;7.30;;
1048;SDS011;513;51.444;7.196;2023-09-30T01:07:12;25.50;;;7.55;;
1048;SDS011;513;51.444;7.196;2023-09-30T01:09:40;29.02;;;7.90;;
1048;SDS011;513;51.444;7.196;2023-09-30T01:12:07;26.75;;;7.55;;
1048;SDS011;513;51.444;7.196;2023-09-30T01:14:34;26.88;;;7.50;;
1048;SDS011;513;51.444;7.196;2023-09-30T01:17:03;27.15;;;7.15;;
1048;SDS011;513;51.444;7.196;2023-09-30T01:19:33;25.20;;;7.22;;
1048;SDS011;513;51.444;7.196;2023-09-30T01:22:02;28.33;;;7.82;;
1048;SDS011;513;51.444;7.196;2023-09-30T01:24:30;24.15;;;7.30;;
1048;SDS011;513;51.444;7.196;2023-09-30T01:26:58;25.73;;;7.43;;
1048;SDS011;513;51.444;7.196;2023-09-30T01:29:25;25.70;;;6.88;;
1048;SDS011;513;51.444;7.196;2023-09-30T01:31:52;23.38;;;6.85;;
1048;SDS011;513;51.444;7.196;2023-09-30T01:34:18;25.33;;;7.18;;
1048;SDS011;513;51.444;7.196;2023-09-30T01:36:45;26.55;;;6.53;;
1048;SDS011;513;51.444;7.196;2023-09-30T01:39:14;20.25;;;6.95;;
1048;SDS011;513;51.444;7.196;2023-09-30T01:41:41;22.35;;;6.22;;
1048;SDS011;513;51.444;7.196;2023-09-30T01:44:08;33.63;;;7.43;;
1048;SDS011;513;51.444;7.196;2023-09-30T01:46:35;25.40;;;6.88;;
1048;SDS011;513;51.444;7.196;2023-09-30T01:49:02;22.35;;;6.97;;
1048;SDS011;513;51.444;7.196;2023-09-30T01:51:29;25.10;;;6.53;;
1048;SDS011;513;51.444;7.196;2023-09-30T01:53:56;20.38;;;6.20;;
1048;SDS011;513;51.444;7.196;2023-09-30T01:56:25;22.93;;;6.00;;
1048;SDS011;513;51.444;7.196;2023-09-30T01:58:52;22.73;;;6.32;;
1048;SDS011;513;51.444;7.196;2023-09-30T02:01:19;26.50;;;6.65;;
1048;SDS011;513;51.444;7.196;2023-09-30T02:03:46;28.33;;;6.40;;
1048;SDS011;513;51.444;7.196;2023-09-30T02:06:12;22.27;;;6.20;;
1048;SDS011;513;51.444;7.196;2023-09-30T02:08:39;22.30;;;6.57;;
1048;SDS011;513;51.444;7.196;2023-09-30T02:11:07;22.90;;;6.05;;
1048;SDS011;513;51.444;7.196;2023-09-30T02:13:35;20.25;;;6.15;;
1048;SDS011;513;51.444;7.196;2023-09-30T02:16:02;19.75;;;5.95;;
1048;SDS011;513;51.444;7.196;2023-09-30T02:18:29;22.05;;;5.75;;
1048;SDS011;513;51.444;7.196;2023-09-30T02:20:57;19.85;;;6.50;;
1048;SDS011;513;51.444;7.196;2023-09-30T02:23:25;22.95;;;6.47;;
1048;SDS011;513;51.444;7.196;2023-09-30T02:25:52;23.75;;;6.88;;
1048;SDS011;513;51.444;7.196;2023-09-30T02:28:19;19.83;;;6.20;;
1048;SDS011;513;51.444;7.196;2023-09-30T02:30:47;24.33;;;6.75;;
1048;SDS011;513;51.444;7.196;2023-09-30T02:33:14;24.85;;;7.25;;
1048;SDS011;513;51.444;7.196;2023-09-30T02:35:43;19.65;;;6.18;;
1048;SDS011;513;51.444;7.196;2023-09-30T02:38:11;20.65;;;6.28;;
1048;SDS011;513;51.444;7.196;2023-09-30T02:40:41;19.65;;;6.07;;
1048;SDS011;513;51.444;7.196;2023-09-30T02:43:11;24.52;;;6.63;;
1048;SDS011;513;51.444;7.196;2023-09-30T02:45:38;18.13;;;5.70;;
1048;SDS011;513;51.444;7.196;2023-09-30T02:48:07;21.63;;;6.32;;
1048;SDS011;513;51.444;7.196;2023-09-30T02:50:33;23.50;;;6.68;;
1048;SDS011;513;51.444;7.196;2023-09-30T02:53:00;22.97;;;6.60;;
1048;SDS011;513;51.444;7.196;2023-09-30T02:55:27;20.58;;;6.10;;
1048;SDS011;513;51.444;7.196;2023-09-30T02:57:54;25.37;;;6.90;;
1048;SDS011;513;51.444;7.196;2023-09-30T03:00:22;25.10;;;7.10;;
1048;SDS011;513;51.444;7.196;2023-09-30T03:02:51;24.80;;;7.43;;
1048;SDS011;513;51.444;7.196;2023-09-30T03:05:20;29.02;;;9.07;;
1048;SDS011;513;51.444;7.196;2023-09-30T03:07:48;30.02;;;9.00;;
1048;SDS011;513;51.444;7.196;2023-09-30T03:10:16;31.67;;;8.85;;
1048;SDS011;513;51.444;7.196;2023-09-30T03:12:45;25.95;;;8.00;;
1048;SDS011;513;51.444;7.196;2023-09-30T03:15:12;29.52;;;8.13;;
1048;SDS011;513;51.444;7.196;2023-09-30T03:17:40;24.83;;;7.93;;
1048;SDS011;513;51.444;7.196;2023-09-30T03:20:07;24.80;;;7.72;;
1048;SDS011;513;51.444;7.196;2023-09-30T03:22:38;25.47;;;7.37;;
1048;SDS011;513;51.444;7.196;2023-09-30T03:25:05;27.55;;;7.68;;
1048;SDS011;513;51.444;7.196;2023-09-30T03:27:33;22.43;;;7.07;;
1048;SDS011;513;51.444;7.196;2023-09-30T03:30:01;25.05;;;6.97;;
1048;SDS011;513;51.444;7.196;2023-09-30T03:32:28;29.00;;;7.15;;
1048;SDS011;513;51.444;7.196;2023-09-30T03:34:55;18.35;;;6.22;;
1048;SDS011;513;51.444;7.196;2023-09-30T03:37:24;23.67;;;6.20;;
1048;SDS011;513;51.444;7.196;2023-09-30T03:39:53;19.93;;;6.50;;
1048;SDS011;513;51.444;7.196;2023-09-30T03:42:20;23.52;;;6.40;;
1048;SDS011;513;51.444;7.196;2023-09-30T03:44:47;22.70;;;6.55;;
1048;SDS011;513;51.444;7.196;2023-09-30T03:47:14;21.88;;;6.38;;
1048;SDS011;513;51.444;7.196;2023-09-30T03:49:41;26.15;;;7.03;;
1048;SDS011;513;51.444;7.196;2023-09-30T03:52:09;21.60;;;6.47;;
1048;SDS011;513;51.444;7.196;2023-09-30T03:54:36;20.40;;;5.82;;
1048;SDS011;513;51.444;7.196;2023-09-30T03:57:08;27.25;;;6.40;;
1048;SDS011;513;51.444;7.196;2023-09-30T03:59:37;26.42;;;6.10;;
1048;SDS011;513;51.444;7.196;2023-09-30T04:02:05;21.40;;;6.00;;
1048;SDS011;513;51.444;7.196;2023-09-30T04:04:33;17.65;;;5.82;;
1048;SDS011;513;51.444;7.196;2023-09-30T04:07:02;23.67;;;5.63;;
1048;SDS011;513;51.444;7.196;2023-09-30T04:09:35;18.42;;;5.85;;
1048;SDS011;513;51.444;7.196;2023-09-30T04:12:02;20.60;;;6.00;;
1048;SDS011;513;51.444;7.196;2023-09-30T04:14:30;21.88;;;5.90;;
1048;SDS011;513;51.444;7.196;2023-09-30T04:16:58;20.40;;;6.07;;
1048;SDS011;513;51.444;7.196;2023-09-30T04:19:25;22.17;;;6.47;;
1048;SDS011;513;51.444;7.196;2023-09-30T04:21:55;24.70;;;6.95;;
1048;SDS011;513;51.444;7.196;2023-09-30T04:24:22;22.45;;;6.93;;
1048;SDS011;513;51.444;7.196;2023-09-30T04:26:49;29.80;;;7.00;;
1048;SDS011;513;51.444;7.196;2023-09-30T04:29:21;23.95;;;6.70;;
1048;SDS011;513;51.444;7.196;2023-09-30T04:31:49;22.55;;;7.07;;
1048;SDS011;513;51.444;7.196;2023-09-30T04:34:17;27.80;;;7.63;;
1048;SDS011;513;51.444;7.196;2023-09-30T04:36:44;25.08;;;8.23;;
1048;SDS011;513;51.444;7.196;2023-09-30T04:39:11;28.70;;;8.50;;
1048;SDS011;513;51.444;7.196;2023-09-30T04:41:39;27.37;;;9.00;;
1048;SDS011;513;51.444;7.196;2023-09-30T04:44:07;28.77;;;10.30;;
1048;SDS011;513;51.444;7.196;2023-09-30T04:46:35;29.55;;;10.23;;
1048;SDS011;513;51.444;7.196;2023-09-30T04:49:06;29.05;;;10.70;;
1048;SDS011;513;51.444;7.196;2023-09-30T04:51:34;33.70;;;11.52;;
1048;SDS011;513;51.444;7.196;2023-09-30T04:54:01;35.35;;;12.95;;
1048;SDS011;513;51.444;7.196;2023-09-30T04:56:28;38.90;;;13.68;;
1048;SDS011;513;51.444;7.196;2023-09-30T04:58:55;36.70;;;14.60;;
1048;SDS011;513;51.444;7.196;2023-09-30T05:01:23;41.35;;;15.05;;
1048;SDS011;513;51.444;7.196;2023-09-30T05:03:50;43.35;;;17.13;;
1048;SDS011;513;51.444;7.196;2023-09-30T05:06:19;43.63;;;17.10;;
1048;SDS011;513;51.444;7.196;2023-09-30T05:08:47;46.22;;;17.85;;
1048;SDS011;513;51.444;7.196;2023-09-30T05:11:14;45.63;;;17.17;;
1048;SDS011;513;51.444;7.196;2023-09-30T05:13:41;41.72;;;17.20;;
1048;SDS011;513;51.444;7.196;2023-09-30T05:16:08;42.55;;;17.45;;
1048;SDS011;513;51.444;7.196;2023-09-30T05:18:35;46.50;;;17.10;;
1048;SDS011;513;51.444;7.196;2023-09-30T05:21:03;47.22;;;16.95;;
1048;SDS011;513;51.444;7.196;2023-09-30T05:23:33;39.60;;;16.95;;
1048;SDS011;513;51.444;7.196;2023-09-30T05:26:01;44.90;;;17.08;;
1048;SDS011;513;51.444;7.196;2023-09-30T05:28:28;43.78;;;16.35;;
1048;SDS011;513;51.444;7.196;2023-09-30T05:30:56;47.22;;;17.35;;
1048;SDS011;513;51.444;7.196;2023-09-30T05:33:23;48.63;;;17.25;;
1048;SDS011;513;51.444;7.196;2023-09-30T05:35:50;51.45;;;18.42;;
1048;SDS011;513;51.444;7.196;2023-09-30T05:38:17;48.28;;;17.63;;
1048;SDS011;513;51.444;7.196;2023-09-30T05:40:46;49.92;;;17.88;;
1048;SDS011;513;51.444;7.196;2023-09-30T05:43:14;48.00;;;18.30;;
1048;SDS011;513;51.444;7.196;2023-09-30T05:45:41;50.83;;;20.17;;
1048;SDS011;513;51.444;7.196;2023-09-30T05:48:14;53.17;;;19.95;;
1048;SDS011;513;51.444;7.196;2023-09-30T05:50:41;53.95;;;21.33;;
1048;SDS011;513;51.444;7.196;2023-09-30T05:53:08;63.13;;;21.88;;
1048;SDS011;513;51.444;7.196;2023-09-30T05:55:36;53.55;;;22.58;;
1048;SDS011;513;51.444;7.196;2023-09-30T05:58:08;58.78;;;22.63;;
1048;SDS011;513;51.444;7.196;2023-09-30T06:00:35;56.70;;;21.75;;
1048;SDS011;513;51.444;7.196;2023-09-30T06:03:03;53.47;;;22.05;;
1048;SDS011;513;51.444;7.196;2023-09-30T06:05:31;52.13;;;22.40;;
1048;SDS011;513;51.444;7.196;2023-09-30T06:07:59;50.90;;;21.08;;
1048;SDS011;513;51.444;7.196;2023-09-30T06:10:30;48.55;;;20.85;;
1048;SDS011;513;51.444;7.196;2023-09-30T06:12:57;48.22;;;20.20;;
1048;SDS011;513;51.444;7.196;2023-09-30T06:15:26;47.90;;;19.70;;
1048;SDS011;513;51.444;7.196;2023-09-30T06:17:53;49.97;;;19.30;;
1048;SDS011;513;51.444;7.196;2023-09-30T06:20:20;45.85;;;18.20;;
1048;SDS011;513;51.444;7.196;2023-09-30T06:22:51;41.40;;;17.10;;
1048;SDS011;513;51.444;7.196;2023-09-30T06:25:19;39.92;;;16.90;;
1048;SDS011;513;51.444;7.196;2023-09-30T06:27:47;36.67;;;16.25;;
1048;SDS011;513;51.444;7.196;2023-09-30T06:30:15;39.47;;;16.33;;
1048;SDS011;513;51.444;7.196;2023-09-30T06:32:43;38.37;;;16.80;;
1048;SDS011;513;51.444;7.196;2023-09-30T06:35:11;37.63;;;15.80;;
1048;SDS011;513;51.444;7.196;2023-09-30T06:37:38;41.83;;;16.33;;
1048;SDS011;513;51.444;7.196;2023-09-30T06:40:05;37.63;;;15.80;;
1048;SDS011;513;51.444;7.196;2023-09-30T06:42:33;38.13;;;15.45;;
1048;SDS011;513;51.444;7.196;2023-09-30T06:45:00;39.65;;;16.10;;
1048;SDS011;513;51.444;7.196;2023-09-30T06:47:30;35.67;;;15.85;;
1048;SDS011;513;51.444;7.196;2023-09-30T06:49:59;40.72;;;15.38;;
1048;SDS011;513;51.444;7.196;2023-09-30T06:52:32;33.78;;;15.35;;
1048;SDS011;513;51.444;7.196;2023-09-30T06:54:59;32.85;;;14.93;;
1048;SDS011;513;51.444;7.196;2023-09-30T06:57:26;38.37;;;15.00;;
1048;SDS011;513;51.444;7.196;2023-09-30T06:59:54;30.52;;;14.70;;
1048;SDS011;513;51.444;7.196;2023-09-30T07:02:21;30.98;;;14.88;;
1048;SDS011;513;51.444;7.196;2023-09-30T07:04:49;30.38;;;14.88;;
1048;SDS011;513;51.444;7.196;2023-09-30T07:07:17;29.40;;;14.02;;
1048;SDS011;513;51.444;7.196;2023-09-30T07:09:44;30.75;;;14.50;;
1048;SDS011;513;51.444;7.196;2023-09-30T07:12:11;32.85;;;13.68;;
1048;SDS011;513;51.444;7.196;2023-09-30T07:14:38;28.53;;;13.83;;
1048;SDS011;513;51.444;7.196;2023-09-30T07:17:05;27.80;;;13.48;;
1048;SDS011;513;51.444;7.196;2023-09-30T07:19:33;28.83;;;13.23;;
1048;SDS011;513;51.444;7.196;2023-09-30T07:22:00;25.15;;;13.13;;
1048;SDS011;513;51.444;7.196;2023-09-30T07:24:28;31.10;;;14.73;;
1048;SDS011;513;51.444;7.196;2023-09-30T07:26:55;26.80;;;13.73;;
1048;SDS011;513;51.444;7.196;2023-09-30T07:29:23;30.15;;;13.30;;
1048;SDS011;513;51.444;7.196;2023-09-30T07:31:50;27.10;;;12.40;;
1048;SDS011;513;51.444;7.196;2023-09-30T07:34:17;30.63;;;12.75;;
1048;SDS011;513;51.444;7.196;2023-09-30T07:36:45;24.67;;;11.63;;
1048;SDS011;513;51.444;7.196;2023-09-30T07:39:12;23.25;;;11.23;;
1048;SDS011;513;51.444;7.196;2023-09-30T07:41:41;22.25;;;11.38;;
1048;SDS011;513;51.444;7.196;2023-09-30T07:44:08;24.17;;;11.38;;
1048;SDS011;513;51.444;7.196;2023-09-30T07:46:35;22.87;;;10.50;;
1048;SDS011;513;51.444;7.196;2023-09-30T07:49:02;25.92;;;10.65;;
1048;SDS011;513;51.444;7.196;2023-09-30T07:51:32;27.42;;;10.80;;
1048;SDS011;513;51.444;7.196;2023-09-30T07:53:59;20.92;;;9.98;;
1048;SDS011;513;51.444;7.196;2023-09-30T07:56:26;19.20;;;10.23;;
1048;SDS011;513;51.444;7.196;2023-09-30T07:58:55;23.05;;;10.05;;
1048;SDS011;513;51.444;7.196;2023-09-30T08:01:22;21.83;;;9.60;;
1048;SDS011;513;51.444;7.196;2023-09-30T08:03:49;20.02;;;9.00;;
1048;SDS011;513;51.444;7.196;2023-09-30T08:06:16;20.35;;;9.15;;
1048;SDS011;513;51.444;7.196;2023-09-30T08:08:43;24.00;;;13.17;;
1048;SDS011;513;51.444;7.196;2023-09-30T08:11:10;28.40;;;16.15;;
1048;SDS011;513;51.444;7.196;2023-09-30T08:13:37;21.88;;;8.57;;
1048;SDS011;513;51.444;7.196;2023-09-30T08:16:06;19.80;;;8.85;;
1048;SDS011;513;51.444;7.196;2023-09-30T08:18:33;18.48;;;8.07;;
1048;SDS011;513;51.444;7.196;2023-09-30T08:21:00;18.00;;;7.60;;
1048;SDS011;513;51.444;7.196;2023-09-30T08:23:27;20.98;;;8.60;;
1048;SDS011;513;51.444;7.196;2023-09-30T08:25:57;18.95;;;7.68;;
1048;SDS011;513;51.444;7.196;2023-09-30T08:28:24;17.67;;;7.63;;
1048;SDS011;513;51.444;7.196;2023-09-30T08:30:51;17.92;;;7.25;;
1048;SDS011;513;51.444;7.196;2023-09-30T08:33:23;14.35;;;6.63;;
1048;SDS011;513;51.444;7.196;2023-09-30T08:35:52;15.73;;;7.05;;
1048;SDS011;513;51.444;7.196;2023-09-30T08:38:20;21.05;;;7.20;;
1048;SDS011;513;51.444;7.196;2023-09-30T08:40:47;15.52;;;6.93;;
1048;SDS011;513;51.444;7.196;2023-09-30T08:43:15;15.03;;;6.50;;
1048;SDS011;513;51.444;7.196;2023-09-30T08:45:45;14.13;;;5.97;;
1048;SDS011;513;51.444;7.196;2023-09-30T08:48:14;14.88;;;5.97;;
1048;SDS011;513;51.444;7.196;2023-09-30T08:50:42;14.83;;;5.33;;
1048;SDS011;513;51.444;7.196;2023-09-30T08:53:10;14.98;;;6.60;;
1048;SDS011;513;51.444;7.196;2023-09-30T08:55:37;15.68;;;5.95;;
1048;SDS011;513;51.444;7.196;2023-09-30T08:58:06;13.70;;;5.60;;
1048;SDS011;513;51.444;7.196;2023-09-30T09:00:33;12.00;;;5.50;;
1048;SDS011;513;51.444;7.196;2023-09-30T09:03:00;19.05;;;9.98;;
1048;SDS011;513;51.444;7.196;2023-09-30T09:05:27;40.60;;;24.83;;
1048;SDS011;513;51.444;7.196;2023-09-30T09:07:56;14.15;;;6.45;;
1048;SDS011;513;51.444;7.196;2023-09-30T09:10:23;13.18;;;5.80;;
1048;SDS011;513;51.444;7.196;2023-09-30T09:12:54;11.40;;;5.80;;
1048;SDS011;513;51.444;7.196;2023-09-30T09:15:23;15.02;;;5.80;;
1048;SDS011;513;51.444;7.196;2023-09-30T09:17:50;14.00;;;6.70;;
1048;SDS011;513;51.444;7.196;2023-09-30T09:20:18;14.05;;;6.85;;
1048;SDS011;513;51.444;7.196;2023-09-30T09:22:46;13.85;;;6.55;;
1048;SDS011;513;51.444;7.196;2023-09-30T09:25:16;14.55;;;6.57;;
1048;SDS011;513;51.444;7.196;2023-09-30T09:27:43;11.35;;;5.82;;
1048;SDS011;513;51.444;7.196;2023-09-30T09:30:17;13.38;;;6.10;;
1048;SDS011;513;51.444;7.196;2023-09-30T09:32:51;13.20;;;6.15;;
1048;SDS011;513;51.444;7.196;2023-09-30T09:35:19;12.18;;;6.05;;
1048;SDS011;513;51.444;7.196;2023-09-30T09:37:53;15.63;;;6.47;;
1048;SDS011;513;51.444;7.196;2023-09-30T09:40:24;12.20;;;5.70;;
1048;SDS011;513;51.444;7.196;2023-09-30T09:42:51;9.98;;;5.90;;
1048;SDS011;513;51.444;7.196;2023-09-30T09:45:20;10.82;;;5.65;;
1048;SDS011;513;51.444;7.196;2023-09-30T09:47:48;16.27;;;5.78;;
1048;SDS011;513;51.444;7.196;2023-09-30T09:50:17;11.20;;;5.63;;
1048;SDS011;513;51.444;7.196;2023-09-30T09:52:44;12.48;;;5.95;;
1048;SDS011;513;51.444;7.196;2023-09-30T09:55:11;11.48;;;6.13;;
1048;SDS011;513;51.444;7.196;2023-09-30T09:57:40;8.88;;;5.05;;
1048;SDS011;513;51.444;7.196;2023-09-30T10:00:10;9.70;;;5.20;;
1048;SDS011;513;51.444;7.196;2023-09-30T10:02:39;9.20;;;5.70;;
1048;SDS011;513;51.444;7.196;2023-09-30T10:05:06;10.68;;;5.68;;
1048;SDS011;513;51.444;7.196;2023-09-30T10:07:35;12.65;;;6.28;;
1048;SDS011;513;51.444;7.196;2023-09-30T10:10:05;9.00;;;6.05;;
1048;SDS011;513;51.444;7.196;2023-09-30T10:12:35;11.52;;;6.25;;
1048;SDS011;513;51.444;7.196;2023-09-30T10:17:59;13.75;;;7.47;;
1048;SDS011;513;51.444;7.196;2023-09-30T10:20:28;11.57;;;5.45;;
1048;SDS011;513;51.444;7.196;2023-09-30T10:25:41;10.10;;;5.17;;
1048;SDS011;513;51.444;7.196;2023-09-30T10:31:10;12.77;;;4.67;;
1048;SDS011;513;51.444;7.196;2023-09-30T10:36:26;8.90;;;4.80;;
1048;SDS011;513;51.444;7.196;2023-09-30T10:38:54;9.40;;;4.87;;
1048;SDS011;513;51.444;7.196;2023-09-30T10:46:52;11.60;;;4.50;;
1048;SDS011;513;51.444;7.196;2023-09-30T10:49:31;9.30;;;4.05;;
1048;SDS011;513;51.444;7.196;2023-09-30T10:52:00;9.90;;;3.97;;
1048;SDS011;513;51.444;7.196;2023-09-30T10:54:27;8.93;;;3.38;;
1048;SDS011;513;51.444;7.196;2023-09-30T10:56:55;10.43;;;4.00;;
1048;SDS011;513;51.444;7.196;2023-09-30T10:59:24;9.05;;;3.53;;
1048;SDS011;513;51.444;7.196;2023-09-30T11:01:52;8.75;;;3.53;;
1048;SDS011;513;51.444;7.196;2023-09-30T11:04:19;10.60;;;3.83;;
1048;SDS011;513;51.444;7.196;2023-09-30T11:06:46;9.48;;;3.50;;
1048;SDS011;513;51.444;7.196;2023-09-30T11:09:19;7.63;;;3.83;;
1048;SDS011;513;51.444;7.196;2023-09-30T11:11:47;9.93;;;3.80;;
1048;SDS011;513;51.444;7.196;2023-09-30T11:14:21;7.67;;;3.40;;
1048;SDS011;513;51.444;7.196;2023-09-30T11:16:49;6.80;;;3.28;;
1048;SDS011;513;51.444;7.196;2023-09-30T11:19:16;7.47;;;3.50;;
1048;SDS011;513;51.444;7.196;2023-09-30T11:21:46;9.10;;;3.83;;
1048;SDS011;513;51.444;7.196;2023-09-30T11:24:13;7.73;;;2.80;;
1048;SDS011;513;51.444;7.196;2023-09-30T11:26:41;6.25;;;2.78;;
1048;SDS011;513;51.444;7.196;2023-09-30T11:29:09;7.05;;;2.70;;
1048;SDS011;513;51.444;7.196;2023-09-30T11:31:37;6.38;;;2.83;;
1048;SDS011;513;51.444;7.196;2023-09-30T11:34:04;5.22;;;3.08;;
1048;SDS011;513;51.444;7.196;2023-09-30T11:36:33;8.45;;;3.50;;
1048;SDS011;513;51.444;7.196;2023-09-30T11:39:01;8.45;;;3.58;;
1048;SDS011;513;51.444;7.196;2023-09-30T11:41:34;8.55;;;3.35;;
1048;SDS011;513;51.444;7.196;2023-09-30T11:44:05;7.43;;;3.28;;
1048;SDS011;513;51.444;7.196;2023-09-30T11:46:46;7.00;;;3.50;;
1048;SDS011;513;51.444;7.196;2023-09-30T11:49:23;7.57;;;3.47;;
1048;SDS011;513;51.444;7.196;2023-09-30T11:51:50;6.18;;;3.08;;
1048;SDS011;513;51.444;7.196;2023-09-30T11:54:17;6.90;;;3.08;;
1048;SDS011;513;51.444;7.196;2023-09-30T11:56:44;8.47;;;3.07;;
1048;SDS011;513;51.444;7.196;2023-09-30T11:59:14;6.32;;;2.92;;
1048;SDS011;513;51.444;7.196;2023-09-30T12:01:41;7.28;;;3.30;;
1048;SDS011;513;51.444;7.196;2023-09-30T12:04:08;6.20;;;3.13;;
1048;SDS011;513;51.444;7.196;2023-09-30T12:06:36;5.82;;;2.50;;
1048;SDS011;513;51.444;7.196;2023-09-30T12:09:03;5.72;;;2.53;;
1048;SDS011;513;51.444;7.196;2023-09-30T12:11:33;5.32;;;2.90;;
1048;SDS011;513;51.444;7.196;2023-09-30T12:14:00;5.77;;;2.90;;
1048;SDS011;513;51.444;7.196;2023-09-30T12:16:28;7.20;;;3.70;;
1048;SDS011;513;51.444;7.196;2023-09-30T12:18:56;7.18;;;3.80;;
1048;SDS011;513;51.444;7.196;2023-09-30T12:21:23;9.07;;;3.75;;
1048;SDS011;513;51.444;7.196;2023-09-30T12:23:50;6.00;;;3.30;;
1048;SDS011;513;51.444;7.196;2023-09-30T12:26:17;7.38;;;3.10;;
1048;SDS011;513;51.444;7.196;2023-09-30T12:28:45;6.28;;;3.13;;
1048;SDS011;513;51.444;7.196;2023-09-30T12:31:13;6.45;;;3.20;;
1048;SDS011;513;51.444;7.196;2023-09-30T12:33:41;6.50;;;3.42;;
1048;SDS011;513;51.444;7.196;2023-09-30T12:36:09;6.78;;;3.35;;
1048;SDS011;513;51.444;7.196;2023-09-30T12:38:38;8.55;;;3.33;;
1048;SDS011;513;51.444;7.196;2023-09-30T12:41:05;5.60;;;3.30;;
1048;SDS011;513;51.444;7.196;2023-09-30T12:43:32;7.93;;;3.08;;
1048;SDS011;513;51.444;7.196;2023-09-30T12:45:59;6.78;;;3.45;;
1048;SDS011;513;51.444;7.196;2023-09-30T12:48:26;7.70;;;3.45;;
1048;SDS011;513;51.444;7.196;2023-09-30T12:50:54;7.50;;;3.67;;
1048;SDS011;513;51.444;7.196;2023-09-30T12:53:21;7.45;;;3.70;;
1048;SDS011;513;51.444;7.196;2023-09-30T12:55:48;7.10;;;3.72;;
1048;SDS011;513;51.444;7.196;2023-09-30T12:58:15;10.20;;;4.25;;
1048;SDS011;513;51.444;7.196;2023-09-30T13:00:42;7.20;;;3.80;;
1048;SDS011;513;51.444;7.196;2023-09-30T13:03:09;8.18;;;3.95;;
1048;SDS011;513;51.444;7.196;2023-09-30T13:05:40;7.50;;;3.90;;
1048;SDS011;513;51.444;7.196;2023-09-30T13:08:08;6.40;;;3.70;;
1048;SDS011;513;51.444;7.196;2023-09-30T13:10:36;8.30;;;4.28;;
1048;SDS011;513;51.444;7.196;2023-09-30T13:13:04;7.80;;;4.45;;
1048;SDS011;513;51.444;7.196;2023-09-30T13:15:32;11.05;;;4.32;;
1048;SDS011;513;51.444;7.196;2023-09-30T13:17:59;7.22;;;4.30;;
1048;SDS011;513;51.444;7.196;2023-09-30T13:20:28;6.75;;;4.00;;
1048;SDS011;513;51.444;7.196;2023-09-30T13:22:55;7.30;;;4.28;;
1048;SDS011;513;51.444;7.196;2023-09-30T13:25:24;8.63;;;4.35;;
1048;SDS011;513;51.444;7.196;2023-09-30T13:27:51;8.82;;;4.50;;
1048;SDS011;513;51.444;7.196;2023-09-30T13:30:18;6.38;;;3.97;;
1048;SDS011;513;51.444;7.196;2023-09-30T13:32:46;6.95;;;4.47;;
1048;SDS011;513;51.444;7.196;2023-09-30T13:35:13;7.32;;;3.97;;
1048;SDS011;513;51.444;7.196;2023-09-30T13:37:40;7.93;;;3.92;;
1048;SDS011;513;51.444;7.196;2023-09-30T13:40:07;7.60;;;4.00;;
1048;SDS011;513;51.444;7.196;2023-09-30T13:42:38;7.80;;;3.97;;
1048;SDS011;513;51.444;7.196;2023-09-30T13:45:05;8.35;;;3.75;;
1048;SDS011;513;51.444;7.196;2023-09-30T13:47:33;8.85;;;3.88;;
1048;SDS011;513;51.444;7.196;2023-09-30T13:50:00;7.22;;;3.95;;
1048;SDS011;513;51.444;7.196;2023-09-30T13:52:29;7.63;;;3.90;;
1048;SDS011;513;51.444;7.196;2023-09-30T13:54:56;7.38;;;3.83;;
1048;SDS011;513;51.444;7.196;2023-09-30T13:57:23;8.23;;;3.65;;
1048;SDS011;513;51.444;7.196;2023-09-30T13:59:51;8.87;;;3.67;;
1048;SDS011;513;51.444;7.196;2023-09-30T14:02:18;6.88;;;3.65;;
1048;SDS011;513;51.444;7.196;2023-09-30T14:04:45;7.72;;;3.50;;
1048;SDS011;513;51.444;7.196;2023-09-30T14:07:12;8.50;;;3.53;;
1048;SDS011;513;51.444;7.196;2023-09-30T14:09:39;8.48;;;3.85;;
1048;SDS011;513;51.444;7.196;2023-09-30T14:12:06;7.50;;;4.53;;
1048;SDS011;513;51.444;7.196;2023-09-30T14:14:33;7.57;;;3.78;;
1048;SDS011;513;51.444;7.196;2023-09-30T14:17:02;6.27;;;3.67;;
1048;SDS011;513;51.444;7.196;2023-09-30T14:19:32;6.63;;;4.13;;
1048;SDS011;513;51.444;7.196;2023-09-30T14:21:59;9.23;;;4.05;;
1048;SDS011;513;51.444;7.196;2023-09-30T14:24:27;7.50;;;3.50;;
1048;SDS011;513;51.444;7.196;2023-09-30T14:26:54;7.10;;;3.50;;
1048;SDS011;513;51.444;7.196;2023-09-30T14:29:21;6.50;;;3.45;;
1048;SDS011;513;51.444;7.196;2023-09-30T14:31:49;8.55;;;3.60;;
1048;SDS011;513;51.444;7.196;2023-09-30T14:34:18;6.97;;;3.20;;
1048;SDS011;513;51.444;7.196;2023-09-30T14:36:45;7.28;;;3.40;;
1048;SDS011;513;51.444;7.196;2023-09-30T14:39:12;5.87;;;3.10;;
1048;SDS011;513;51.444;7.196;2023-09-30T14:41:40;6.15;;;3.00;;
1048;SDS011;513;51.444;7.196;2023-09-30T14:44:07;9.05;;;3.40;;
1048;SDS011;513;51.444;7.196;2023-09-30T14:46:37;6.63;;;3.47;;
1048;SDS011;513;51.444;7.196;2023-09-30T14:49:04;6.28;;;3.10;;
1048;SDS011;513;51.444;7.196;2023-09-30T14:51:33;7.32;;;3.60;;
1048;SDS011;513;51.444;7.196;2023-09-30T14:54:00;6.88;;;3.50;;
1048;SDS011;513;51.444;7.196;2023-09-30T14:56:27;7.22;;;3.85;;
1048;SDS011;513;51.444;7.196;2023-09-30T14:58:54;6.85;;;3.70;;
1048;SDS011;513;51.444;7.196;2023-09-30T15:01:21;7.22;;;3.58;;
1048;SDS011;513;51.444;7.196;2023-09-30T15:03:48;6.85;;;3.30;;
1048;SDS011;513;51.444;7.196;2023-09-30T15:06:16;8.60;;;3.90;;
1048;SDS011;513;51.444;7.196;2023-09-30T15:08:44;8.65;;;3.75;;
1048;SDS011;513;51.444;7.196;2023-09-30T15:11:14;8.65;;;3.70;;
1048;SDS011;513;51.444;7.196;2023-09-30T15:13:41;8.02;;;3.70;;
1048;SDS011;513;51.444;7.196;2023-09-30T15:16:14;6.63;;;3.40;;
1048;SDS011;513;51.444;7.196;2023-09-30T15:18:41;7.82;;;3.80;;
1048;SDS011;513;51.444;7.196;2023-09-30T15:21:08;7.15;;;3.60;;
1048;SDS011;513;51.444;7.196;2023-09-30T15:23:35;7.68;;;3.88;;
1048;SDS011;513;51.444;7.196;2023-09-30T15:26:04;7.70;;;3.65;;
1048;SDS011;513;51.444;7.196;2023-09-30T15:28:31;8.32;;;3.67;;
1048;SDS011;513;51.444;7.196;2023-09-30T15:30:58;6.90;;;3.63;;
1048;SDS011;513;51.444;7.196;2023-09-30T15:33:26;7.30;;;3.40;;
1048;SDS011;513;51.444;7.196;2023-09-30T15:35:53;7.65;;;3.42;;
1048;SDS011;513;51.444;7.196;2023-09-30T15:38:20;6.53;;;3.40;;